sensor_id;sensor_type;location;lat;lon;timestamp;pressure;altitude;pressure_sealevel;temperature;humidity
80410;BME280;69746;45.596;10.154;2023-08-06T00:00:26;98521.63;;;27.60;48.77
80410;BME280;69746;45.596;10.154;2023-08-06T00:02:52;98512.06;;;27.61;48.84
80410;BME280;69746;45.596;10.154;2023-08-06T00:05:20;98519.63;;;27.60;48.72
80410;BME280;69746;45.596;10.154;2023-08-06T00:07:48;98517.22;;;27.59;48.84
80410;BME280;69746;45.596;10.154;2023-08-06T00:10:15;98513.22;;;27.60;48.93
80410;BME280;69746;45.596;10.154;2023-08-06T00:12:41;98512.41;;;27.59;48.72
80410;BME280;69746;45.596;10.154;2023-08-06T00:15:07;98514.41;;;27.59;48.88
80410;BME280;69746;45.596;10.154;2023-08-06T00:17:34;98506.81;;;27.59;48.81
80410;BME280;69746;45.596;10.154;2023-08-06T00:20:00;98511.59;;;27.59;48.73
80410;BME280;69746;45.596;10.154;2023-08-06T00:22:35;98506.81;;;27.59;48.72
80410;BME280;69746;45.596;10.154;2023-08-06T00:25:02;98494.78;;;27.59;48.91
80410;BME280;69746;45.596;10.154;2023-08-06T00:27:29;98499.59;;;27.58;48.62
80410;BME280;69746;45.596;10.154;2023-08-06T00:29:55;98502.41;;;27.58;48.83
80410;BME280;69746;45.596;10.154;2023-08-06T00:32:23;98499.97;;;27.57;49.01
80410;BME280;69746;45.596;10.154;2023-08-06T00:34:49;98500.78;;;27.57;48.69
80410;BME280;69746;45.596;10.154;2023-08-06T00:37:18;98497.22;;;27.60;49.00
80410;BME280;69746;45.596;10.154;2023-08-06T00:39:44;98489.09;;;27.52;48.82
80410;BME280;69746;45.596;10.154;2023-08-06T00:42:10;98498.78;;;27.58;48.76
80410;BME280;69746;45.596;10.154;2023-08-06T00:44:37;98500.41;;;27.59;48.76
80410;BME280;69746;45.596;10.154;2023-08-06T00:47:03;98501.59;;;27.58;48.86
80410;BME280;69746;45.596;10.154;2023-08-06T00:49:29;98495.19;;;27.57;48.88
80410;BME280;69746;45.596;10.154;2023-08-06T00:51:54;98497.16;;;27.57;48.75
80410;BME280;69746;45.596;10.154;2023-08-06T00:54:22;98502.41;;;27.58;48.99
80410;BME280;69746;45.596;10.154;2023-08-06T00:56:49;98488.75;;;27.57;48.88
80410;BME280;69746;45.596;10.154;2023-08-06T00:59:15;98485.16;;;27.56;48.83
80410;BME280;69746;45.596;10.154;2023-08-06T01:01:41;98488.75;;;27.57;48.72
80410;BME280;69746;45.596;10.154;2023-08-06T01:04:07;98489.56;;;27.57;48.88
80410;BME280;69746;45.596;10.154;2023-08-06T01:06:51;98478.38;;;27.57;48.67
80410;BME280;69746;45.596;10.154;2023-08-06T01:12:06;98476.38;;;27.58;48.87
80410;BME280;69746;45.596;10.154;2023-08-06T01:14:46;98478.38;;;27.57;48.68
80410;BME280;69746;45.596;10.154;2023-08-06T01:17:14;98471.16;;;27.56;48.81
80410;BME280;69746;45.596;10.154;2023-08-06T01:19:40;98469.16;;;27.57;48.88
80410;BME280;69746;45.596;10.154;2023-08-06T01:22:08;98461.94;;;27.56;48.87
80410;BME280;69746;45.596;10.154;2023-08-06T01:24:34;98463.94;;;27.55;48.87
80410;BME280;69746;45.596;10.154;2023-08-06T01:29:41;98460.72;;;27.53;49.00
80410;BME280;69746;45.596;10.154;2023-08-06T01:32:10;98467.53;;;27.56;48.86
80410;BME280;69746;45.596;10.154;2023-08-06T01:34:40;98459.53;;;27.54;48.81
80410;BME280;69746;45.596;10.154;2023-08-06T01:37:07;98461.53;;;27.54;48.75
80410;BME280;69746;45.596;10.154;2023-08-06T01:39:33;98456.72;;;27.54;48.91
80410;BME280;69746;45.596;10.154;2023-08-06T01:41:59;98458.34;;;27.55;48.89
80410;BME280;69746;45.596;10.154;2023-08-06T01:44:25;98452.31;;;27.53;48.88
80410;BME280;69746;45.596;10.154;2023-08-06T01:46:51;98447.13;;;27.55;48.96
80410;BME280;69746;45.596;10.154;2023-08-06T01:49:19;98449.94;;;27.55;48.80
80410;BME280;69746;45.596;10.154;2023-08-06T01:51:45;98459.53;;;27.54;48.72
80410;BME280;69746;45.596;10.154;2023-08-06T01:54:11;98458.34;;;27.55;48.86
80410;BME280;69746;45.596;10.154;2023-08-06T01:56:36;98454.72;;;27.55;48.81
80410;BME280;69746;45.596;10.154;2023-08-06T01:59:02;98458.34;;;27.55;48.93
80410;BME280;69746;45.596;10.154;2023-08-06T02:01:28;98457.53;;;27.55;49.04
80410;BME280;69746;45.596;10.154;2023-08-06T02:03:54;98447.13;;;27.55;48.89
80410;BME280;69746;45.596;10.154;2023-08-06T02:06:20;98446.31;;;27.55;48.90
80410;BME280;69746;45.596;10.154;2023-08-06T02:08:45;98439.13;;;27.54;48.92
80410;BME280;69746;45.596;10.154;2023-08-06T02:11:11;98438.31;;;27.53;49.01
80410;BME280;69746;45.596;10.154;2023-08-06T02:13:40;98421.13;;;27.55;48.88
80410;BME280;69746;45.596;10.154;2023-08-06T02:16:07;98415.50;;;27.55;48.93
80410;BME280;69746;45.596;10.154;2023-08-06T02:18:36;98438.31;;;27.53;48.96
80410;BME280;69746;45.596;10.154;2023-08-06T02:21:02;98430.28;;;27.52;48.75
80410;BME280;69746;45.596;10.154;2023-08-06T02:23:27;98420.69;;;27.53;48.96
80410;BME280;69746;45.596;10.154;2023-08-06T02:26:00;98421.50;;;27.53;48.90
80410;BME280;69746;45.596;10.154;2023-08-06T02:28:26;98419.88;;;27.52;48.72
80410;BME280;69746;45.596;10.154;2023-08-06T02:30:52;98422.69;;;27.52;48.81
80410;BME280;69746;45.596;10.154;2023-08-06T02:33:18;98426.28;;;27.53;48.90
80410;BME280;69746;45.596;10.154;2023-08-06T02:35:44;98418.28;;;27.51;48.83
80410;BME280;69746;45.596;10.154;2023-08-06T02:38:09;98419.09;;;27.52;48.98
80410;BME280;69746;45.596;10.154;2023-08-06T02:40:46;98413.09;;;27.53;48.84
80410;BME280;69746;45.596;10.154;2023-08-06T02:43:12;98420.69;;;27.53;48.70
80410;BME280;69746;45.596;10.154;2023-08-06T02:45:38;98421.88;;;27.52;48.77
80410;BME280;69746;45.596;10.154;2023-08-06T02:48:04;98415.47;;;27.51;48.92
80410;BME280;69746;45.596;10.154;2023-08-06T02:50:30;98417.09;;;27.52;48.71
80410;BME280;69746;45.596;10.154;2023-08-06T02:52:56;98405.88;;;27.52;48.98
80410;BME280;69746;45.596;10.154;2023-08-06T02:55:21;98400.66;;;27.51;48.86
80410;BME280;69746;45.596;10.154;2023-08-06T02:57:47;98397.47;;;27.52;48.84
80410;BME280;69746;45.596;10.154;2023-08-06T03:00:13;98399.47;;;27.52;48.79
80410;BME280;69746;45.596;10.154;2023-08-06T03:02:39;98388.66;;;27.50;49.02
80410;BME280;69746;45.596;10.154;2023-08-06T03:05:07;98391.88;;;27.52;48.91
80410;BME280;69746;45.596;10.154;2023-08-06T03:07:33;98385.47;;;27.52;48.72
80410;BME280;69746;45.596;10.154;2023-08-06T03:10:01;98368.66;;;27.52;48.85
80410;BME280;69746;45.596;10.154;2023-08-06T03:12:27;98370.66;;;27.51;49.00
80410;BME280;69746;45.596;10.154;2023-08-06T03:14:53;98372.28;;;27.52;48.95
80410;BME280;69746;45.596;10.154;2023-08-06T03:17:19;98364.66;;;27.53;48.83
80410;BME280;69746;45.596;10.154;2023-08-06T03:19:44;98377.06;;;27.52;48.92
80410;BME280;69746;45.596;10.154;2023-08-06T03:22:10;98373.47;;;27.51;48.88
80410;BME280;69746;45.596;10.154;2023-08-06T03:24:36;98367.06;;;27.51;48.90
80410;BME280;69746;45.596;10.154;2023-08-06T03:27:02;98369.03;;;27.50;48.97
80410;BME280;69746;45.596;10.154;2023-08-06T03:29:30;98359.44;;;27.51;48.97
80410;BME280;69746;45.596;10.154;2023-08-06T03:31:56;98350.25;;;27.51;48.71
80410;BME280;69746;45.596;10.154;2023-08-06T03:34:21;98335.38;;;27.47;48.87
80410;BME280;69746;45.596;10.154;2023-08-06T03:36:47;98338.22;;;27.50;48.98
80410;BME280;69746;45.596;10.154;2023-08-06T03:39:13;98331.81;;;27.50;48.83
80410;BME280;69746;45.596;10.154;2023-08-06T03:41:39;98329.84;;;27.50;48.85
80410;BME280;69746;45.596;10.154;2023-08-06T03:44:05;98325.41;;;27.49;48.85
80410;BME280;69746;45.596;10.154;2023-08-06T03:46:31;98317.03;;;27.49;48.97
80410;BME280;69746;45.596;10.154;2023-08-06T03:49:00;98314.63;;;27.51;48.98
80410;BME280;69746;45.596;10.154;2023-08-06T03:51:26;98311.41;;;27.49;48.93
80410;BME280;69746;45.596;10.154;2023-08-06T03:53:52;98310.63;;;27.49;48.79
80410;BME280;69746;45.596;10.154;2023-08-06T03:56:20;98305.38;;;27.47;48.92
80410;BME280;69746;45.596;10.154;2023-08-06T03:58:46;98307.81;;;27.49;48.95
80410;BME280;69746;45.596;10.154;2023-08-06T04:01:12;98309.41;;;27.50;48.91
80410;BME280;69746;45.596;10.154;2023-08-06T04:03:38;98314.59;;;27.48;48.91
80410;BME280;69746;45.596;10.154;2023-08-06T04:06:03;98310.16;;;27.47;48.96
80410;BME280;69746;45.596;10.154;2023-08-06T04:08:29;98310.63;;;27.49;48.79
80410;BME280;69746;45.596;10.154;2023-08-06T04:10:55;98317.81;;;27.50;48.89
80410;BME280;69746;45.596;10.154;2023-08-06T04:13:21;98316.22;;;27.49;48.78
80410;BME280;69746;45.596;10.154;2023-08-06T04:15:47;98310.63;;;27.49;48.85
80410;BME280;69746;45.596;10.154;2023-08-06T04:18:13;98316.22;;;27.49;48.95
80410;BME280;69746;45.596;10.154;2023-08-06T04:20:45;98312.22;;;27.50;48.82
80410;BME280;69746;45.596;10.154;2023-08-06T04:23:14;98314.22;;;27.49;49.04
80410;BME280;69746;45.596;10.154;2023-08-06T04:25:40;98321.81;;;27.49;48.95
80410;BME280;69746;45.596;10.154;2023-08-06T04:28:07;98327.78;;;27.47;48.88
80410;BME280;69746;45.596;10.154;2023-08-06T04:30:32;98345.03;;;27.49;48.77
80410;BME280;69746;45.596;10.154;2023-08-06T04:32:58;98340.63;;;27.48;49.01
80410;BME280;69746;45.596;10.154;2023-08-06T04:35:24;98343.41;;;27.48;48.90
80410;BME280;69746;45.596;10.154;2023-08-06T04:37:50;98348.22;;;27.48;48.91
80410;BME280;69746;45.596;10.154;2023-08-06T04:40:15;98354.63;;;27.48;48.77
80410;BME280;69746;45.596;10.154;2023-08-06T04:42:41;98352.97;;;27.47;48.94
80410;BME280;69746;45.596;10.154;2023-08-06T04:45:07;98350.19;;;27.47;48.80
80410;BME280;69746;45.596;10.154;2023-08-06T04:47:33;98345.78;;;27.46;49.02
80410;BME280;69746;45.596;10.154;2023-08-06T04:50:02;98342.63;;;27.48;48.99
80410;BME280;69746;45.596;10.154;2023-08-06T04:52:28;98349.38;;;27.47;48.94
80410;BME280;69746;45.596;10.154;2023-08-06T04:54:54;98342.16;;;27.46;48.77
80410;BME280;69746;45.596;10.154;2023-08-06T04:57:20;98343.78;;;27.47;48.97
80410;BME280;69746;45.596;10.154;2023-08-06T04:59:47;98352.19;;;27.47;49.03
80410;BME280;69746;45.596;10.154;2023-08-06T05:02:13;98357.78;;;27.47;48.87
80410;BME280;69746;45.596;10.154;2023-08-06T05:04:39;98356.97;;;27.46;48.84
80410;BME280;69746;45.596;10.154;2023-08-06T05:07:05;98357.78;;;27.47;48.81
80410;BME280;69746;45.596;10.154;2023-08-06T05:09:31;98358.16;;;27.45;48.87
80410;BME280;69746;45.596;10.154;2023-08-06T05:12:04;98365.38;;;27.46;49.11
80410;BME280;69746;45.596;10.154;2023-08-06T05:14:30;98355.38;;;27.45;49.02
80410;BME280;69746;45.596;10.154;2023-08-06T05:16:55;98357.34;;;27.45;48.89
80410;BME280;69746;45.596;10.154;2023-08-06T05:19:21;98361.34;;;27.44;49.07
80410;BME280;69746;45.596;10.154;2023-08-06T05:21:47;98362.16;;;27.44;48.85
80410;BME280;69746;45.596;10.154;2023-08-06T05:24:13;98368.56;;;27.45;49.05
80410;BME280;69746;45.596;10.154;2023-08-06T05:26:38;98371.38;;;27.45;49.00
80410;BME280;69746;45.596;10.154;2023-08-06T05:29:04;98371.38;;;27.45;48.99
80410;BME280;69746;45.596;10.154;2023-08-06T05:31:30;98375.34;;;27.44;48.78
80410;BME280;69746;45.596;10.154;2023-08-06T05:33:56;98373.34;;;27.44;48.85
80410;BME280;69746;45.596;10.154;2023-08-06T05:36:21;98372.97;;;27.46;48.86
80410;BME280;69746;45.596;10.154;2023-08-06T05:38:50;98370.97;;;27.46;48.86
80410;BME280;69746;45.596;10.154;2023-08-06T05:41:16;98384.19;;;27.46;48.81
80410;BME280;69746;45.596;10.154;2023-08-06T05:43:42;98375.34;;;27.44;48.71
80410;BME280;69746;45.596;10.154;2023-08-06T05:46:07;98374.97;;;27.45;48.95
80410;BME280;69746;45.596;10.154;2023-08-06T05:48:33;98365.75;;;27.45;48.94
80410;BME280;69746;45.596;10.154;2023-08-06T05:50:59;98366.94;;;27.44;48.94
80410;BME280;69746;45.596;10.154;2023-08-06T05:53:25;98352.94;;;27.44;48.92
80410;BME280;69746;45.596;10.154;2023-08-06T05:55:51;98356.56;;;27.44;48.88
80410;BME280;69746;45.596;10.154;2023-08-06T05:58:17;98365.75;;;27.45;48.81
80410;BME280;69746;45.596;10.154;2023-08-06T06:00:43;98373.34;;;27.44;49.06
80410;BME280;69746;45.596;10.154;2023-08-06T06:03:11;98365.75;;;27.45;48.89
80410;BME280;69746;45.596;10.154;2023-08-06T06:05:38;98372.56;;;27.44;48.87
80410;BME280;69746;45.596;10.154;2023-08-06T06:08:04;98368.94;;;27.43;48.80
80410;BME280;69746;45.596;10.154;2023-08-06T06:10:30;98375.75;;;27.42;48.88
80410;BME280;69746;45.596;10.154;2023-08-06T06:12:56;98375.34;;;27.44;48.77
80410;BME280;69746;45.596;10.154;2023-08-06T06:15:22;98374.53;;;27.43;48.86
80410;BME280;69746;45.596;10.154;2023-08-06T06:17:48;98377.34;;;27.43;48.88
80410;BME280;69746;45.596;10.154;2023-08-06T06:20:13;98390.16;;;27.44;49.01
80410;BME280;69746;45.596;10.154;2023-08-06T06:22:39;98391.34;;;27.43;49.01
80410;BME280;69746;45.596;10.154;2023-08-06T06:25:06;98394.97;;;27.44;48.91
80410;BME280;69746;45.596;10.154;2023-08-06T06:27:32;98394.16;;;27.43;48.98
80410;BME280;69746;45.596;10.154;2023-08-06T06:30:00;98391.34;;;27.43;48.83
80410;BME280;69746;45.596;10.154;2023-08-06T06:32:26;98396.16;;;27.43;48.88
80410;BME280;69746;45.596;10.154;2023-08-06T06:34:52;98394.53;;;27.42;49.08
80410;BME280;69746;45.596;10.154;2023-08-06T06:37:18;98401.75;;;27.43;48.81
80410;BME280;69746;45.596;10.154;2023-08-06T06:39:43;98400.94;;;27.42;48.96
80410;BME280;69746;45.596;10.154;2023-08-06T06:42:10;98400.13;;;27.42;49.08
80410;BME280;69746;45.596;10.154;2023-08-06T06:44:36;98401.75;;;27.43;48.90
80410;BME280;69746;45.596;10.154;2023-08-06T06:47:02;98400.13;;;27.42;48.93
80410;BME280;69746;45.596;10.154;2023-08-06T06:49:28;98413.75;;;27.43;48.81
80410;BME280;69746;45.596;10.154;2023-08-06T06:51:54;98398.94;;;27.43;49.08
80410;BME280;69746;45.596;10.154;2023-08-06T06:54:19;98399.75;;;27.43;48.79
80410;BME280;69746;45.596;10.154;2023-08-06T06:56:48;98395.34;;;27.42;49.01
80410;BME280;69746;45.596;10.154;2023-08-06T06:59:14;98389.75;;;27.42;48.91
80410;BME280;69746;45.596;10.154;2023-08-06T07:01:40;98390.94;;;27.41;49.13
80410;BME280;69746;45.596;10.154;2023-08-06T07:04:06;98395.34;;;27.42;48.88
80410;BME280;69746;45.596;10.154;2023-08-06T07:06:31;98398.16;;;27.42;49.05
80410;BME280;69746;45.596;10.154;2023-08-06T07:08:57;98403.75;;;27.42;49.10
80410;BME280;69746;45.596;10.154;2023-08-06T07:11:23;98414.94;;;27.42;48.98
80410;BME280;69746;45.596;10.154;2023-08-06T07:13:56;98417.75;;;27.42;48.73
80410;BME280;69746;45.596;10.154;2023-08-06T07:16:24;98402.94;;;27.42;49.02
80410;BME280;69746;45.596;10.154;2023-08-06T07:18:53;98402.94;;;27.42;48.90
80410;BME280;69746;45.596;10.154;2023-08-06T07:21:22;98389.75;;;27.42;49.04
80410;BME280;69746;45.596;10.154;2023-08-06T07:23:47;98386.13;;;27.42;48.89
80410;BME280;69746;45.596;10.154;2023-08-06T07:26:16;98374.13;;;27.41;49.00
80410;BME280;69746;45.596;10.154;2023-08-06T07:28:42;98383.34;;;27.42;49.01
80410;BME280;69746;45.596;10.154;2023-08-06T07:31:08;98386.94;;;27.42;49.04
80410;BME280;69746;45.596;10.154;2023-08-06T07:33:34;98380.53;;;27.42;48.84
80410;BME280;69746;45.596;10.154;2023-08-06T07:36:06;98384.16;;;27.42;48.76
80410;BME280;69746;45.596;10.154;2023-08-06T07:38:32;98385.34;;;27.41;49.14
80410;BME280;69746;45.596;10.154;2023-08-06T07:41:01;98384.16;;;27.42;48.99
80410;BME280;69746;45.596;10.154;2023-08-06T07:43:27;98376.94;;;27.41;49.14
80410;BME280;69746;45.596;10.154;2023-08-06T07:45:53;98378.94;;;27.41;49.18
80410;BME280;69746;45.596;10.154;2023-08-06T07:48:21;98366.53;;;27.42;49.03
80410;BME280;69746;45.596;10.154;2023-08-06T07:50:51;98375.75;;;27.42;48.89
80410;BME280;69746;45.596;10.154;2023-08-06T07:53:21;98372.94;;;27.42;48.98
80410;BME280;69746;45.596;10.154;2023-08-06T07:55:50;98370.53;;;27.41;48.92
80410;BME280;69746;45.596;10.154;2023-08-06T07:58:17;98384.53;;;27.41;49.08
80410;BME280;69746;45.596;10.154;2023-08-06T08:00:43;98378.13;;;27.40;48.98
80410;BME280;69746;45.596;10.154;2023-08-06T08:03:12;98385.34;;;27.41;49.09
80410;BME280;69746;45.596;10.154;2023-08-06T08:05:39;98374.13;;;27.41;49.05
80410;BME280;69746;45.596;10.154;2023-08-06T08:08:07;98377.72;;;27.42;48.93
80410;BME280;69746;45.596;10.154;2023-08-06T08:10:34;98372.13;;;27.42;49.24
80410;BME280;69746;45.596;10.154;2023-08-06T08:13:03;98369.34;;;27.42;48.89
80410;BME280;69746;45.596;10.154;2023-08-06T08:15:31;98373.31;;;27.41;48.80
80410;BME280;69746;45.596;10.154;2023-08-06T08:17:58;98372.94;;;27.42;48.93
80410;BME280;69746;45.596;10.154;2023-08-06T08:20:26;98377.72;;;27.42;49.05
80410;BME280;69746;45.596;10.154;2023-08-06T08:22:58;98387.75;;;27.43;48.91
80410;BME280;69746;45.596;10.154;2023-08-06T08:25:25;98376.53;;;27.43;49.02
80410;BME280;69746;45.596;10.154;2023-08-06T08:27:53;98381.34;;;27.42;48.97
80410;BME280;69746;45.596;10.154;2023-08-06T08:30:19;98381.72;;;27.41;49.03
80410;BME280;69746;45.596;10.154;2023-08-06T08:32:47;98374.50;;;27.40;49.13
80410;BME280;69746;45.596;10.154;2023-08-06T08:35:15;98374.94;;;27.42;49.05
80410;BME280;69746;45.596;10.154;2023-08-06T08:37:42;98369.72;;;27.40;49.03
80410;BME280;69746;45.596;10.154;2023-08-06T08:40:15;98376.13;;;27.41;49.09
80410;BME280;69746;45.596;10.154;2023-08-06T08:42:42;98364.13;;;27.40;48.97
80410;BME280;69746;45.596;10.154;2023-08-06T08:45:12;98359.31;;;27.41;48.90
80410;BME280;69746;45.596;10.154;2023-08-06T08:47:42;98366.91;;;27.40;49.13
80410;BME280;69746;45.596;10.154;2023-08-06T08:50:10;98366.91;;;27.40;48.90
80410;BME280;69746;45.596;10.154;2023-08-06T08:52:36;98368.91;;;27.40;49.03
80410;BME280;69746;45.596;10.154;2023-08-06T08:55:04;98373.72;;;27.39;48.99
80410;BME280;69746;45.596;10.154;2023-08-06T08:57:29;98375.69;;;27.39;48.96
80410;BME280;69746;45.596;10.154;2023-08-06T12:59:25;98297.69;;;27.37;49.37
80410;BME280;69746;45.596;10.154;2023-08-06T13:01:51;98300.50;;;27.41;49.23
80410;BME280;69746;45.596;10.154;2023-08-06T13:04:17;98300.50;;;27.41;49.33
80410;BME280;69746;45.596;10.154;2023-08-06T13:06:43;98302.91;;;27.42;49.01
80410;BME280;69746;45.596;10.154;2023-08-06T13:09:09;98303.72;;;27.43;49.09
80410;BME280;69746;45.596;10.154;2023-08-06T13:11:36;98306.53;;;27.43;49.23
80410;BME280;69746;45.596;10.154;2023-08-06T13:14:09;98310.13;;;27.43;49.16
80410;BME280;69746;45.596;10.154;2023-08-06T13:16:38;98315.72;;;27.43;49.15
80410;BME280;69746;45.596;10.154;2023-08-06T13:19:06;98304.53;;;27.43;49.03
80410;BME280;69746;45.596;10.154;2023-08-06T13:24:07;98305.75;;;27.46;49.06
80410;BME280;69746;45.596;10.154;2023-08-06T13:26:34;98296.53;;;27.45;48.98
80410;BME280;69746;45.596;10.154;2023-08-06T13:29:00;98298.16;;;27.46;48.99
80410;BME280;69746;45.596;10.154;2023-08-06T13:31:27;98302.16;;;27.45;48.94
80410;BME280;69746;45.596;10.154;2023-08-06T13:33:55;98299.34;;;27.45;49.16
80410;BME280;69746;45.596;10.154;2023-08-06T13:36:27;98309.34;;;27.46;49.27
80410;BME280;69746;45.596;10.154;2023-08-06T13:38:53;98297.34;;;27.46;49.23
80410;BME280;69746;45.596;10.154;2023-08-06T13:41:19;98293.34;;;27.47;49.18
80410;BME280;69746;45.596;10.154;2023-08-06T13:43:46;98305.38;;;27.47;49.19
80410;BME280;69746;45.596;10.154;2023-08-06T13:46:12;98306.19;;;27.48;49.06
80410;BME280;69746;45.596;10.154;2023-08-06T13:48:46;98296.59;;;27.49;49.04
80410;BME280;69746;45.596;10.154;2023-08-06T13:51:14;98304.22;;;27.48;49.09
80410;BME280;69746;45.596;10.154;2023-08-06T13:53:41;98290.19;;;27.48;49.13
80410;BME280;69746;45.596;10.154;2023-08-06T13:56:15;98296.59;;;27.49;48.88
80410;BME280;69746;45.596;10.154;2023-08-06T13:58:43;98303.00;;;27.49;49.03
80410;BME280;69746;45.596;10.154;2023-08-06T14:01:10;98290.19;;;27.48;49.05
80410;BME280;69746;45.596;10.154;2023-08-06T14:03:37;98296.59;;;27.49;49.01
80410;BME280;69746;45.596;10.154;2023-08-06T14:06:03;98284.97;;;27.47;49.11
80410;BME280;69746;45.596;10.154;2023-08-06T14:08:33;98293.41;;;27.50;49.12
80410;BME280;69746;45.596;10.154;2023-08-06T14:10:58;98297.41;;;27.49;48.92
80410;BME280;69746;45.596;10.154;2023-08-06T14:13:24;98292.63;;;27.50;49.10
80410;BME280;69746;45.596;10.154;2023-08-06T14:15:56;98293.81;;;27.49;49.11
80410;BME280;69746;45.596;10.154;2023-08-06T14:18:22;98297.41;;;27.49;48.86
80410;BME280;69746;45.596;10.154;2023-08-06T14:20:50;98292.63;;;27.50;48.92
80410;BME280;69746;45.596;10.154;2023-08-06T14:23:16;98298.22;;;27.50;48.94
80410;BME280;69746;45.596;10.154;2023-08-06T14:25:43;98289.00;;;27.49;49.43
80410;BME280;69746;45.596;10.154;2023-08-06T14:28:09;98298.22;;;27.50;48.96
80410;BME280;69746;45.596;10.154;2023-08-06T14:30:38;98298.22;;;27.50;49.13
80410;BME280;69746;45.596;10.154;2023-08-06T14:33:03;98304.63;;;27.50;49.10
80410;BME280;69746;45.596;10.154;2023-08-06T14:35:30;98306.63;;;27.50;49.16
80410;BME280;69746;45.596;10.154;2023-08-06T14:37:56;98299.03;;;27.50;48.90
80410;BME280;69746;45.596;10.154;2023-08-06T14:40:23;98293.81;;;27.49;49.02
80410;BME280;69746;45.596;10.154;2023-08-06T14:42:52;98301.44;;;27.52;49.11
80410;BME280;69746;45.596;10.154;2023-08-06T14:45:17;98292.22;;;27.51;49.06
80410;BME280;69746;45.596;10.154;2023-08-06T14:47:43;98301.81;;;27.50;49.03
80410;BME280;69746;45.596;10.154;2023-08-06T14:50:10;98310.22;;;27.50;48.98
80410;BME280;69746;45.596;10.154;2023-08-06T14:52:37;98299.44;;;27.52;49.07
80410;BME280;69746;45.596;10.154;2023-08-06T14:55:04;98306.22;;;27.51;49.01
80410;BME280;69746;45.596;10.154;2023-08-06T14:57:33;98311.03;;;27.51;49.02
80410;BME280;69746;45.596;10.154;2023-08-06T14:59:58;98305.44;;;27.51;48.99
80410;BME280;69746;45.596;10.154;2023-08-06T15:02:25;98325.84;;;27.51;48.92
80410;BME280;69746;45.596;10.154;2023-08-06T15:04:52;98326.66;;;27.52;49.05
80410;BME280;69746;45.596;10.154;2023-08-06T15:07:18;98311.84;;;27.51;49.04
80410;BME280;69746;45.596;10.154;2023-08-06T15:09:44;98319.44;;;27.51;48.92
80410;BME280;69746;45.596;10.154;2023-08-06T15:12:11;98320.25;;;27.51;49.03
80410;BME280;69746;45.596;10.154;2023-08-06T15:14:37;98339.03;;;27.51;49.04
80410;BME280;69746;45.596;10.154;2023-08-06T15:17:02;98318.25;;;27.52;49.11
80410;BME280;69746;45.596;10.154;2023-08-06T15:19:29;98323.84;;;27.52;49.09
80410;BME280;69746;45.596;10.154;2023-08-06T15:21:58;98321.03;;;27.52;49.08
80410;BME280;69746;45.596;10.154;2023-08-06T15:24:24;98327.84;;;27.51;49.10
80410;BME280;69746;45.596;10.154;2023-08-06T15:26:50;98323.84;;;27.52;49.06
80410;BME280;69746;45.596;10.154;2023-08-06T15:29:17;98341.47;;;27.52;48.99
80410;BME280;69746;45.596;10.154;2023-08-06T15:31:43;98337.84;;;27.52;49.02
80410;BME280;69746;45.596;10.154;2023-08-06T15:34:12;98340.66;;;27.52;49.08
80410;BME280;69746;45.596;10.154;2023-08-06T15:36:39;98331.44;;;27.51;49.18
80410;BME280;69746;45.596;10.154;2023-08-06T15:39:05;98343.44;;;27.52;49.11
80410;BME280;69746;45.596;10.154;2023-08-06T15:41:33;98333.84;;;27.53;49.06
80410;BME280;69746;45.596;10.154;2023-08-06T15:43:59;98336.63;;;27.49;49.04
80410;BME280;69746;45.596;10.154;2023-08-06T15:46:25;98344.25;;;27.52;49.00
80410;BME280;69746;45.596;10.154;2023-08-06T15:48:54;98343.44;;;27.52;49.13
80410;BME280;69746;45.596;10.154;2023-08-06T15:51:20;98344.25;;;27.52;49.15
80410;BME280;69746;45.596;10.154;2023-08-06T15:53:45;98349.06;;;27.52;49.07
80410;BME280;69746;45.596;10.154;2023-08-06T15:56:11;98351.84;;;27.52;48.96
80410;BME280;69746;45.596;10.154;2023-08-06T15:58:37;98349.84;;;27.52;49.06
80410;BME280;69746;45.596;10.154;2023-08-06T16:01:03;98363.06;;;27.52;49.18
80410;BME280;69746;45.596;10.154;2023-08-06T16:03:29;98352.66;;;27.52;49.07
80410;BME280;69746;45.596;10.154;2023-08-06T16:05:55;98355.47;;;27.52;48.92
80410;BME280;69746;45.596;10.154;2023-08-06T16:08:21;98357.47;;;27.52;48.89
80410;BME280;69746;45.596;10.154;2023-08-06T16:10:47;98364.66;;;27.53;49.01
80410;BME280;69746;45.596;10.154;2023-08-06T16:13:16;98364.66;;;27.53;49.12
80410;BME280;69746;45.596;10.154;2023-08-06T16:15:42;98371.06;;;27.53;49.14
80410;BME280;69746;45.596;10.154;2023-08-06T16:18:08;98359.88;;;27.53;49.17
80410;BME280;69746;45.596;10.154;2023-08-06T16:20:34;98365.47;;;27.53;49.14
80410;BME280;69746;45.596;10.154;2023-08-06T16:23:00;98363.88;;;27.52;48.84
80410;BME280;69746;45.596;10.154;2023-08-06T16:25:26;98365.47;;;27.53;49.08
80410;BME280;69746;45.596;10.154;2023-08-06T16:27:52;98375.06;;;27.52;49.14
80410;BME280;69746;45.596;10.154;2023-08-06T16:30:18;98365.84;;;27.52;48.97
80410;BME280;69746;45.596;10.154;2023-08-06T16:32:45;98368.28;;;27.53;48.96
80410;BME280;69746;45.596;10.154;2023-08-06T16:35:11;98370.28;;;27.53;49.03
80410;BME280;69746;45.596;10.154;2023-08-06T16:37:37;98369.09;;;27.54;49.01
80410;BME280;69746;45.596;10.154;2023-08-06T16:40:07;98382.28;;;27.53;48.90
80410;BME280;69746;45.596;10.154;2023-08-06T16:42:35;98382.28;;;27.53;49.16
80410;BME280;69746;45.596;10.154;2023-08-06T16:45:01;98383.09;;;27.54;49.13
80410;BME280;69746;45.596;10.154;2023-08-06T16:47:28;98383.91;;;27.54;49.18
80410;BME280;69746;45.596;10.154;2023-08-06T16:49:53;98376.66;;;27.50;49.15
80410;BME280;69746;45.596;10.154;2023-08-06T16:52:19;98383.09;;;27.54;49.00
80410;BME280;69746;45.596;10.154;2023-08-06T16:54:46;98397.09;;;27.54;49.14